• Join FlightAware (Why Join?)
  • Login
  • US Flag 
09:02PM EDT


 

Airport Tracker/Info


-or-


 

Live Flight TrackerFlight Track Log ✈ SWA1223 ✈ 22-Apr-2013 ✈ KPHX - KEWR

Flight Track Log - Related Links

Times and Time Zones

All times are in EDT time to prevent confusion due to time zone crossing. See the SWA1223 flight status page for this flight to view local times or setup timezone preferences in your user account.

Time Position Orientation Groundspeed Altitude Reporting Facility
EDT Latitude Longitude Course Direction KTS MPH feet Rate Location/Type
01:33PM 33.4333 -111.9667 90° East 182 209 2,200  Level Phoenix TRACON
01:34PM 33.4333 -111.9167 90° East 219 252 3,700 1,440 Climbing Phoenix TRACON
01:35PM 33.4358 -111.8992 80° East 212 244 4,000 1,560 Climbing Albuquerque Center
01:36PM 33.4461 -111.8156 82° East 254 292 5,900 2,580 Climbing Albuquerque Center
01:37PM 33.4611 -111.7006 81° East 294 338 9,400 2,700 Climbing Albuquerque Center
01:38PM 33.4750 -111.5928 81° East 327 376 11,600 2,460 Climbing Albuquerque Center
01:39PM 33.4908 -111.4719 81° East 367 422 14,600 2,640 Climbing Albuquerque Center
01:40PM 33.5056 -111.3458 82° East 384 442 17,100 2,400 Climbing Albuquerque Center
01:41PM 33.5206 -111.2117 82° East 407 468 19,600 2,520 Climbing Albuquerque Center
01:42PM 33.5394 -111.0461 82° East 422 486 22,400 2,280 Climbing Albuquerque Center
01:43PM 33.5561 -110.8997 82° East 438 504 24,400 1,860 Climbing Albuquerque Center
01:44PM 33.5992 -110.7606 70° East 443 510 26,300 1,740 Climbing Albuquerque Center
01:45PM 33.6447 -110.6197 69° East 453 521 28,000 1,560 Climbing Albuquerque Center
01:46PM 33.6906 -110.4744 69° East 461 531 29,600 1,500 Climbing Albuquerque Center
01:47PM 33.7411 -110.3158 69° East 472 543 31,200 1,560 Climbing Albuquerque Center
01:48PM 33.7900 -110.1669 68° East 479 551 32,900 1,500 Climbing Albuquerque Center
01:49PM 33.8364 -110.0197 69° East 477 549 34,300 1,140 Climbing Albuquerque Center
01:51PM 33.8941 -109.8003 68° East  Level FlightAware Approximate
01:51PM 33.9414 -109.6903 68° East 483 556 36,500  Level Albuquerque Center
01:52PM 33.9892 -109.5381 69° East 487 560 37,000 240 Climbing Albuquerque Center
01:53PM 34.0358 -109.3869 70° East 487 560 37,000  Level Albuquerque Center
01:54PM 34.0831 -109.2375 69° East 482 555 37,000  Level Albuquerque Center
01:55PM 34.1347 -109.0536 71° East 483 556 37,000  Level Albuquerque Center
01:56PM 34.1736 -108.8992 73° East 484 557 37,000  Level Albuquerque Center
01:57PM 34.2139 -108.7456 72° East 484 557 37,000  Level Albuquerque Center
01:58PM 34.2542 -108.5917 72° East 484 557 37,000  Level Albuquerque Center
01:59PM 34.2939 -108.4369 73° East 484 557 37,000  Level Albuquerque Center
02:00PM 34.3406 -108.2542 73° East 482 555 37,000  Level Albuquerque Center
02:02PM 34.3806 -108.0986 73° East 484 557 37,000  Level Albuquerque Center
02:03PM 34.4197 -107.9428 73° East 485 558 37,000  Level Albuquerque Center
02:04PM 34.4589 -107.7875 73° East 484 557 37,000  Level Albuquerque Center
02:05PM 34.4983 -107.6300 73° East 488 562 37,000  Level Albuquerque Center
02:06PM 34.5458 -107.4411 73° East 489 563 37,000  Level Albuquerque Center
02:07PM 34.5850 -107.2833 73° East 491 565 37,000  Level Albuquerque Center
02:08PM 34.6231 -107.1244 74° East 491 565 37,000  Level Albuquerque Center
02:09PM 34.6614 -106.9672 73° East 491 565 37,000  Level Albuquerque Center
02:10PM 34.6983 -106.8094 74° East 491 565 37,000  Level Albuquerque Center
02:11PM 34.7442 -106.6197 74° East 493 567 37,000  Level Albuquerque Center
02:12PM 34.7811 -106.4628 74° East 490 564 37,000  Level Albuquerque Center
02:13PM 34.8189 -106.3039 74° East 492 566 37,000  Level Albuquerque Center
02:14PM 34.8558 -106.1456 74° East 490 564 37,000  Level Albuquerque Center
02:15PM 34.8922 -105.9869 74° East 489 563 37,000  Level Albuquerque Center
02:16PM 34.9331 -105.8169 74° East 490 564 37,000  Level Albuquerque Center
02:17PM 34.9703 -105.6556 74° East 491 565 37,000  Level Albuquerque Center
02:18PM 35.0125 -105.4686 75° East 487 560 37,000  Level Albuquerque Center
02:19PM 35.0506 -105.3075 74° East 489 563 37,000  Level Albuquerque Center
02:20PM 35.0864 -105.1475 75° East 486 559 37,000  Level Albuquerque Center
02:21PM 35.1339 -104.9944 69° East 478 550 37,000  Level Albuquerque Center
02:22PM 35.2036 -104.8578 58° Northeast 469 540 37,000  Level Albuquerque Center
02:23PM 35.2725 -104.7175 59° Northeast 472 543 37,000  Level Albuquerque Center
02:24PM 35.3467 -104.5714 58° Northeast 475 547 37,000  Level Albuquerque Center
02:25PM 35.4128 -104.4361 59° Northeast 476 548 37,000  Level Albuquerque Center
02:26PM 35.4842 -104.2928 59° Northeast 480 552 37,000  Level Albuquerque Center
02:27PM 35.5553 -104.1486 59° Northeast 483 556 37,000  Level Albuquerque Center
02:28PM 35.6267 -104.0039 59° Northeast 486 559 37,000  Level Albuquerque Center
02:29PM 35.6967 -103.8581 59° Northeast 489 563 37,000  Level Albuquerque Center
02:30PM 35.7686 -103.7117 59° Northeast 492 566 37,000  Level Albuquerque Center
02:31PM 35.8519 -103.5389 59° Northeast 497 572 37,000  Level Albuquerque Center
02:32PM 35.9228 -103.3906 59° Northeast 497 572 37,000  Level Albuquerque Center
02:33PM 35.9933 -103.2414 60° Northeast 498 573 37,000  Level Albuquerque Center
02:34PM 36.0653 -103.0922 59° Northeast 499 574 37,000  Level Albuquerque Center
02:36PM 36.1364 -102.9425 60° Northeast 501 577 37,000  Level Albuquerque Center
02:37PM 36.2028 -102.8028 59° Northeast 504 580 37,000  Level Albuquerque Center
02:38PM 36.2733 -102.6544 59° Northeast 501 577 37,000  Level Albuquerque Center
02:39PM 36.3581 -102.4725 60° Northeast 506 582 37,000  Level Albuquerque Center
02:40PM 36.4289 -102.3194 60° Northeast 510 587 37,000  Level Albuquerque Center
02:41PM 36.4997 -102.1672 60° Northeast 509 586 37,000  Level Albuquerque Center
02:42PM 36.5708 -102.0158 60° Northeast 508 585 37,000  Level Albuquerque Center
02:43PM 36.6483 -101.8467 60° Northeast 511 588 37,000  Level Albuquerque Center
02:44PM 36.7150 -101.7003 60° Northeast 510 587 37,000  Level Albuquerque Center
02:45PM 36.7933 -101.5275 60° Northeast 512 589 37,000  Level Albuquerque Center
02:46PM 36.8614 -101.3806 60° Northeast 512 589 37,000  Level Albuquerque Center
02:47PM 36.9167 -101.2561 61° Northeast 513 590 37,000  Level Kansas City Center
02:48PM 36.9825 -101.1092 61° Northeast 511 588 37,000  Level Kansas City Center
02:49PM 37.0533 -100.9322 63° Northeast 512 589 37,000  Level Kansas City Center
02:50PM 37.0897 -100.7650 75° East 521 600 37,000  Level Kansas City Center
02:51PM 37.1322 -100.5744 74° East 516 594 37,000  Level Kansas City Center
02:52PM 37.1675 -100.4111 75° East 512 589 37,000  Level Kansas City Center
02:53PM 37.2083 -100.2189 75° East 513 590 37,000  Level Kansas City Center
02:54PM 37.2447 -100.0544 74° East 514 592 37,000  Level Kansas City Center
02:55PM 37.2853 -99.8619 75° East 514 592 37,000  Level Kansas City Center
02:56PM 37.3194 -99.6967 75° East 512 589 37,000  Level Kansas City Center
02:57PM 37.3600 -99.5058 75° East 509 586 37,000  Level Kansas City Center
02:58PM 37.3936 -99.3628 73° East 516 594 37,000  Level Kansas City Center
02:59PM 37.4375 -99.1558 75° East 512 589 37,000  Level Kansas City Center
03:00PM 37.4678 -98.9778 78° East 521 600 37,000  Level Kansas City Center
03:01PM 37.5036 -98.8033 75° East 519 597 37,000  Level Kansas City Center
03:02PM 37.5394 -98.6278 76° East 519 597 37,000  Level Kansas City Center
03:03PM 37.5750 -98.4525 76° East 519 597 37,000  Level Kansas City Center
03:04PM 37.6106 -98.2750 76° East 523 602 37,000  Level Kansas City Center
03:05PM 37.6475 -98.0822 76° East 526 605 37,000  Level Kansas City Center
03:06PM 37.6831 -97.9003 76° East 530 610 37,000  Level Kansas City Center
03:07PM 37.7258 -97.6803 76° East 534 615 37,000  Level Kansas City Center
03:08PM 37.7600 -97.4986 77° East 530 610 37,000  Level Kansas City Center
03:09PM 37.7903 -97.3431 76° East 538 619 37,000  Level Kansas City Center
03:10PM 37.8286 -97.1250 77° East 533 613 37,000  Level Kansas City Center
03:11PM 37.8617 -96.9453 77° East 527 606 37,000  Level Kansas City Center
03:12PM 37.8933 -96.7678 77° East 521 600 37,000  Level Kansas City Center
03:13PM 37.9236 -96.5881 78° East 522 601 37,000  Level Kansas City Center
03:14PM 37.9536 -96.4103 78° East 519 597 37,000  Level Kansas City Center
03:15PM 37.9839 -96.2317 78° East 518 596 37,000  Level Kansas City Center
03:16PM 38.0142 -96.0422 78° East 515 593 37,000  Level Kansas City Center
03:18PM 38.0469 -95.8428 78° East 517 595 37,000  Level Kansas City Center
03:19PM 38.0781 -95.6700 77° East 523 602 37,000  Level Kansas City Center
03:20PM 38.1122 -95.4711 78° East 519 597 37,000  Level Kansas City Center
03:21PM 38.1425 -95.2967 78° East 529 609 37,000  Level Kansas City Center
03:22PM 38.1811 -95.0658 78° East 526 605 37,000  Level Kansas City Center
03:23PM 38.2122 -94.8725 78° East 523 602 37,000  Level Kansas City Center
03:24PM 38.2417 -94.6867 79° East 529 609 37,000  Level Kansas City Center
03:25PM 38.2678 -94.5139 79° East 528 608 37,000  Level Kansas City Center
03:26PM 38.3108 -94.3178 74° East 520 598 37,000  Level Kansas City Center
03:27PM 38.3500 -94.1489 73° East 519 597 37,000  Level Kansas City Center
03:28PM 38.3928 -93.9547 74° East 515 593 37,000  Level Kansas City Center
03:29PM 38.4325 -93.7778 74° East 516 594 37,000 120 Level Kansas City Center
03:30PM 38.4719 -93.6056 74° East 509 586 37,300 420 Climbing Kansas City Center
03:31PM 38.5083 -93.4331 75° East 504 580 37,900 780 Climbing Kansas City Center
03:32PM 38.5467 -93.2569 74° East 508 585 39,000 480 Climbing Kansas City Center
03:33PM 38.5842 -93.0842 74° East 505 581 39,000  Level Kansas City Center
03:34PM 38.6228 -92.9108 74° East 503 579 39,000  Level Kansas City Center
03:35PM 38.6653 -92.7064 75° East 498 573 39,000  Level Kansas City Center
03:36PM 38.7025 -92.5336 75° East 498 573 39,000  Level Kansas City Center
03:37PM 38.7372 -92.3606 76° East 498 573 39,000  Level Kansas City Center
03:38PM 38.7725 -92.1889 75° East 497 572 39,000  Level Kansas City Center
03:39PM 38.8078 -92.0197 75° East 491 565 39,000  Level Kansas City Center
03:40PM 38.8428 -91.8489 75° East 491 565 39,000  Level Kansas City Center
03:41PM 38.8786 -91.6658 76° East 488 562 39,000  Level Kansas City Center
03:42PM 38.9122 -91.4978 76° East 487 560 39,000  Level Kansas City Center
03:43PM 38.9461 -91.3294 75° East 487 560 39,000  Level Kansas City Center
03:44PM 38.9803 -91.1617 75° East 486 559 39,000  Level Kansas City Center
03:46PM 39.0128 -90.9939 76° East 483 556 39,000  Level Kansas City Center
03:47PM 39.0453 -90.8272 76° East 481 554 39,000  Level Kansas City Center
03:48PM 39.0772 -90.6600 76° East 479 551 39,000  Level Kansas City Center
03:49PM 39.1100 -90.4908 76° East 482 555 39,000  Level Kansas City Center
03:50PM 39.1486 -90.2886 76° East 482 555 39,000  Level Kansas City Center
03:51PM 39.1803 -90.1197 76° East 482 555 39,000  Level Kansas City Center
03:52PM 39.2117 -89.9514 76° East 482 555 39,000  Level Kansas City Center
03:53PM 39.2431 -89.7836 76° East 483 556 39,000  Level Kansas City Center
03:54PM 39.2728 -89.6144 77° East 482 555 39,000  Level Kansas City Center
03:55PM 39.3033 -89.4442 77° East 485 558 39,000  Level Kansas City Center
03:56PM 39.3336 -89.2756 77° East 483 556 39,000  Level Kansas City Center
03:57PM 39.3631 -89.1081 77° East 481 554 39,000  Level Kansas City Center
03:58PM 39.4006 -88.9058 76° East 482 555 39,000  Level Kansas City Center
03:59PM 39.4258 -88.7514 78° East 482 555 39,000  Level Kansas City Center
04:00PM 39.4597 -88.5647 77° East 482 555 39,000  Level Kansas City Center
04:01PM 39.4889 -88.3961 77° East 480 552 39,000  Level Kansas City Center
04:02PM 39.5181 -88.2247 78° East 482 555 39,000  Level Kansas City Center
04:03PM 39.5469 -88.0539 78° East 483 556 39,000  Level Kansas City Center
04:04PM 39.5750 -87.8844 78° East 479 551 39,000  Level Kansas City Center
04:05PM 39.6025 -87.7144 78° East 480 552 39,000  Level Kansas City Center
04:06PM 39.6231 -87.5825 79° East 480 552 39,000  Level Indianapolis Center
04:07PM 39.6517 -87.4111 78° East 482 555 39,000  Level Indianapolis Center
04:08PM 39.6842 -87.2061 78° East 481 554 39,000  Level Indianapolis Center
04:09PM 39.7114 -87.0342 78° East 482 555 39,000  Level Indianapolis Center
04:10PM 39.7378 -86.8622 79° East 483 556 39,000  Level Indianapolis Center
04:11PM 39.7653 -86.6908 78° East 483 556 39,000  Level Indianapolis Center
04:12PM 39.7906 -86.5197 79° East 481 554 39,000  Level Indianapolis Center
04:13PM 39.8183 -86.3483 78° East 481 554 39,000  Level Indianapolis Center
04:14PM 39.8531 -86.1806 75° East 479 551 39,000  Level Indianapolis Center
04:15PM 39.8894 -86.0136 74° East 478 550 39,000  Level Indianapolis Center
04:16PM 39.9289 -85.8247 75° East 479 551 39,000  Level Indianapolis Center
04:17PM 39.9653 -85.6567 74° East 479 551 39,000  Level Indianapolis Center
04:18PM 39.9992 -85.4875 75° East 479 551 39,000  Level Indianapolis Center
04:19PM 40.0350 -85.3192 74° East 477 549 39,000  Level Indianapolis Center
04:20PM 40.0686 -85.1494 75° East 480 552 39,000  Level Indianapolis Center
04:21PM 40.1019 -84.9817 75° East 475 547 39,000  Level Indianapolis Center
04:22PM 40.1425 -84.7858 75° East 473 544 39,000  Level Indianapolis Center
04:23PM 40.1753 -84.6167 76° East 475 547 39,000  Level Indianapolis Center
04:24PM 40.2092 -84.4472 75° East 477 549 39,000  Level Indianapolis Center
04:25PM 40.2419 -84.2789 76° East 475 547 39,000  Level Indianapolis Center
04:26PM 40.2739 -84.1097 76° East 474 545 39,000  Level Indianapolis Center
04:27PM 40.3289 -83.9503 66° East 473 544 39,000  Level Indianapolis Center
04:29PM 40.3997 -83.8000 58° Northeast 476 548 39,000  Level Indianapolis Center
04:30PM 40.4683 -83.6472 59° Northeast 480 552 39,000  Level Indianapolis Center
04:31PM 40.5386 -83.4953 59° Northeast 480 552 39,000  Level Indianapolis Center
04:32PM 40.6183 -83.3175 59° Northeast 480 552 39,000  Level Indianapolis Center
04:32PM 40.6531 -83.2433 58° Northeast 477 549 39,000  Level Cleveland Center
04:33PM 40.7125 -83.1114 59° Northeast 477 549 39,000  Level Cleveland Center
04:34PM 40.7825 -82.9606 58° Northeast 477 549 39,000  Level Cleveland Center
04:35PM 40.8458 -82.8119 61° Northeast 477 549 39,000  Level Cleveland Center
04:36PM 40.9111 -82.6631 60° Northeast 470 541 39,000  Level Cleveland Center
04:37PM 40.9786 -82.5111 59° Northeast 470 541 39,000  Level Cleveland Center
04:38PM 41.0456 -82.3561 60° Northeast 470 541 39,000  Level Cleveland Center
04:39PM 41.1125 -82.2064 59° Northeast 475 547 39,000  Level Cleveland Center
04:40PM 41.1814 -82.0508 59° Northeast 482 555 39,000  Level Cleveland Center
04:41PM 41.2456 -81.9006 60° Northeast 482 555 39,000  Level Cleveland Center
04:42PM 41.3119 -81.7497 60° Northeast 482 555 39,000  Level Cleveland Center
04:43PM 41.3781 -81.5958 60° Northeast 482 555 39,000  Level Cleveland Center
04:44PM 41.4419 -81.4447 61° Northeast 477 549 39,000  Level Cleveland Center
04:45PM 41.5056 -81.2928 61° Northeast 477 549 39,000  Level Cleveland Center
04:46PM 41.5708 -81.1383 60° Northeast 477 549 39,000  Level Cleveland Center
04:47PM 41.6342 -80.9833 61° Northeast 477 549 39,000  Level Cleveland Center
04:48PM 41.6992 -80.8306 60° Northeast 476 548 39,000  Level Cleveland Center
04:49PM 41.7639 -80.6722 61° Northeast 476 548 39,000  Level Cleveland Center
04:50PM 41.7953 -80.4914 77° East 458 527 39,000  Level Cleveland Center
04:51PM 41.7761 -80.3214 99° East 453 521 39,000  Level Cleveland Center
04:52PM 41.7569 -80.1461 98° East 461 531 39,000  Level Cleveland Center
04:53PM 41.7375 -79.9767 99° East 466 536 39,000  Level Cleveland Center
04:54PM 41.7219 -79.8097 97° East 461 531 39,000  Level Cleveland Center
04:55PM 41.7017 -79.6375 99° East 467 537 39,000  Level Cleveland Center
04:56PM 41.6856 -79.4683 97° East 462 532 39,000  Level Cleveland Center
04:57PM 41.6672 -79.2961 98° East 462 532 39,000  Level Cleveland Center
04:58PM 41.6486 -79.1269 98° East 462 532 39,000  Level Cleveland Center
04:59PM 41.6294 -78.9553 98° East 462 532 39,000  Level Cleveland Center
05:00PM 41.6081 -78.7836 99° East 467 537 39,000  Level Cleveland Center
05:01PM 41.5886 -78.6119 99° East 467 537 39,000 -900 Level Cleveland Center
05:02PM 41.5711 -78.4403 98° East 467 537 37,200 -2,040 Descending Cleveland Center
05:03PM 41.5572 -78.3397 100° East 461 531 35,700 -2,100 Descending New York Center
05:04PM 41.5408 -78.2019 99° East 467 537 33,800 -2,220 Descending New York Center
05:05PM 41.5158 -78.0025 99° East 467 537 31,300 -1,440 Descending New York Center
05:06PM 41.4961 -77.8453 99° East 446 513 31,000 -180 Descending New York Center
05:07PM 41.4739 -77.6906 101° East 433 498 31,000  Level New York Center
05:08PM 41.4517 -77.5331 101° East 433 498 31,000  Level New York Center
05:09PM 41.4253 -77.3728 102° East 433 498 31,000  Level New York Center
05:10PM 41.4008 -77.2097 101° East 438 504 31,000  Level New York Center
05:11PM 41.3786 -77.0444 100° East 438 504 31,000 -120 Level New York Center
05:12PM 41.3539 -76.8792 101° East 445 512 30,800 -1,440 Descending New York Center
05:13PM 41.3203 -76.7186 106° East 455 524 28,200 -2,520 Descending New York Center
05:14PM 41.2800 -76.5633 109° East 455 524 25,800 -2,340 Descending New York Center
05:15PM 41.2392 -76.4189 111° Southeast 434 499 23,600 -2,220 Descending New York Center
05:16PM 41.2000 -76.2750 110° East 421 484 21,500 -1,920 Descending New York Center
05:17PM 41.1647 -76.1397 109° East 409 471 19,900 -1,320 Descending New York Center
05:18PM 41.1289 -76.0047 109° East 396 456 18,900 -1,080 Descending New York Center
05:19PM 41.0933 -75.8697 109° East 396 456 17,800 -1,560 Descending New York Center
05:20PM 41.0608 -75.7519 110° East 391 450 15,900 -2,280 Descending New York Center
05:21PM 41.0231 -75.6089 109° East 380 437 13,300 -1,500 Descending New York Center
05:22PM 40.9903 -75.4908 110° East 356 410 12,900 -540 Descending New York Center
05:23PM 40.9572 -75.3761 111° Southeast 336 387 12,300 -1,200 Descending New York Center
05:24PM 40.9242 -75.2639 111° Southeast 331 381 10,600 -1,140 Descending New York Center
05:25PM 40.8967 -75.1606 109° East 319 367 10,100 -660 Descending New York Center
05:26PM 40.8725 -75.0822 112° Southeast 275 316 9,300 -1,080 Descending New York Center
05:27PM 40.8486 -74.9928 109° East 260 299 8,000 -1,200 Descending New York Center
05:28PM 40.8436 -74.9019 94° East 249 287 7,000 -480 Descending New York Center
05:29PM 40.8953 -74.8475 39° Northeast 223 257 7,100  Climbing New York Center
05:30PM 40.8897 -74.7703 95° East 204 235 7,100 -60 Level New York Center
05:31PM 40.9128 -74.7031 66° East 190 219 7,000  Descending New York Center
05:32PM 40.9800 -74.6850 11° North 203 234 7,100  Climbing New York Center
05:33PM 41.0392 -74.6581 19° North 222 255 7,000  Descending New York Center
05:34PM 41.0183 -74.5992 115° Southeast 155 178 7,100 -480 Climbing New York Center
05:35PM 40.9542 -74.5872 172° South 146 168 6,100 -600 Descending New York Center
05:36PM 40.8978 -74.5925 184° South 191 220 6,000  Descending New York Center
05:36PM 40.8500 -74.6000 187° South 221 254 6,100 60 Climbing New York TRACON
05:37PM 40.8000 -74.6000 180° South 225 259 6,100 -60 Level New York TRACON
05:38PM 40.7333 -74.6000 180° South 222 255 6,000 -540 Descending New York TRACON
05:39PM 40.6667 -74.6000 180° South 225 259 5,100 -480 Descending New York TRACON
05:40PM 40.6167 -74.5833 166° South 221 254 5,100 -300 Level New York TRACON
05:41PM 40.5500 -74.5667 169° South 220 253 4,600 -600 Descending New York TRACON
05:42PM 40.5000 -74.5333 153° Southeast 204 235 4,000 -300 Descending New York TRACON
05:43PM 40.4500 -74.5000 153° Southeast 182 209 4,100  Climbing New York TRACON
05:44PM 40.4333 -74.4500 114° Southeast 165 190 4,100 -240 Level New York TRACON
05:45PM 40.4000 -74.4000 131° Southeast 166 191 3,700 -540 Descending New York TRACON
05:46PM 40.4167 -74.3500 66° East 167 192 3,100 -300 Descending New York TRACON
05:47PM 40.4500 -74.3167 37° Northeast 167 192 3,100  Level New York TRACON
05:48PM 40.5000 -74.2833 27° Northeast 174 200 3,100 -60 Level New York TRACON
05:49PM 40.5500 -74.2667 14° North 173 199 3,000 -540 Descending New York TRACON
05:50PM 40.5833 -74.2333 37° Northeast 179 206 2,100 -900 Descending New York TRACON
05:51PM 40.6333 -74.2000 27° Northeast 157 181 1,200 -900 Descending New York TRACON